createdAt,value
2022-07-29T00:00:00.599Z,101927.91
2022-07-29T00:02:28.249Z,101928.72
2022-07-29T00:04:54.735Z,101916.56
2022-07-29T00:07:21.332Z,101910.50
2022-07-29T00:09:51.723Z,101909.66
2022-07-29T00:12:26.550Z,101917.53
2022-07-29T00:14:57.402Z,101907.03
2022-07-29T00:17:25.138Z,101900.94
2022-07-29T00:19:51.927Z,101909.66
2022-07-29T00:22:19.000Z,101903.56
2022-07-29T00:24:45.397Z,101899.28
2022-07-29T00:27:11.750Z,101899.28
2022-07-29T00:29:38.095Z,101901.91
2022-07-29T00:32:04.742Z,101896.69
2022-07-29T00:34:50.245Z,101891.44
2022-07-29T00:37:16.675Z,101878.44
2022-07-29T00:39:43.578Z,101871.41
2022-07-29T00:42:10.658Z,101882.84
2022-07-29T00:44:41.578Z,101875.84
2022-07-29T00:47:08.977Z,101875.84
2022-07-29T00:49:36.167Z,101868.91
2022-07-29T00:52:04.308Z,101866.28
2022-07-29T00:54:31.197Z,101866.28
2022-07-29T00:56:59.835Z,101863.78
2022-07-29T00:59:34.453Z,101868.09
2022-07-29T01:02:01.903Z,101860.31
2022-07-29T01:04:28.334Z,101867.22
2022-07-29T01:06:55.658Z,101864.59
2022-07-29T01:09:43.204Z,101860.31
2022-07-29T01:12:09.869Z,101856.84
2022-07-29T01:14:38.171Z,101854.25
2022-07-29T01:17:18.523Z,101856.97
2022-07-29T01:20:11.250Z,101856.97
2022-07-29T01:23:15.285Z,101853.53
2022-07-29T01:25:53.220Z,101850.78
2022-07-29T01:28:47.881Z,101848.28
2022-07-29T01:31:25.010Z,101850.91
2022-07-29T01:33:58.483Z,101848.41
2022-07-29T01:36:33.307Z,101845.78
2022-07-29T01:39:08.323Z,101845.78
2022-07-29T01:41:38.196Z,101846.59
2022-07-29T01:44:16.031Z,101848.41
2022-07-29T01:46:48.476Z,101845.78
2022-07-29T01:49:22.640Z,101848.50
2022-07-29T01:51:53.686Z,101858.00
2022-07-29T01:54:31.610Z,101847.66
2022-07-29T01:57:00.732Z,101853.75
2022-07-29T01:59:28.707Z,101853.75
2022-07-29T02:01:58.324Z,101851.22
2022-07-29T02:04:29.328Z,101853.84
2022-07-29T02:07:04.611Z,101849.56
2022-07-29T02:09:34.160Z,101849.56
2022-07-29T02:12:03.623Z,101853.09
2022-07-29T02:14:36.981Z,101851.31
2022-07-29T02:17:03.944Z,101860.09
2022-07-29T02:19:33.399Z,101848.69
2022-07-29T02:22:00.923Z,101851.31
2022-07-29T02:24:28.688Z,101845.25
2022-07-29T02:26:58.005Z,101841.78
2022-07-29T02:29:27.204Z,101840.84
2022-07-29T02:31:55.031Z,101838.28
2022-07-29T02:34:22.627Z,101843.53
2022-07-29T02:36:50.426Z,101839.16
2022-07-29T02:39:19.096Z,101837.47
2022-07-29T02:41:57.064Z,101837.47
2022-07-29T02:44:29.024Z,101841.88
2022-07-29T02:47:05.215Z,101834.03
2022-07-29T02:49:37.299Z,101835.78
2022-07-29T02:52:15.092Z,101835.78
2022-07-29T02:54:55.870Z,101834.97
2022-07-29T02:57:31.332Z,101834.13
2022-07-29T02:59:59.885Z,101834.13
2022-07-29T03:02:28.024Z,101835.91
2022-07-29T03:04:56.272Z,101835.06
2022-07-29T03:07:25.503Z,101837.69
2022-07-29T03:09:53.484Z,101838.53
2022-07-29T03:12:20.316Z,101829.00
2022-07-29T03:14:47.390Z,101831.63
2022-07-29T03:17:14.716Z,101824.72
2022-07-29T03:19:41.640Z,101829.00
2022-07-29T03:22:08.322Z,101820.28
2022-07-29T03:24:36.627Z,101812.56
2022-07-29T03:27:04.567Z,101816.03
2022-07-29T03:29:33.021Z,101814.34
2022-07-29T03:31:59.767Z,101809.94
2022-07-29T03:34:26.130Z,101809.09
2022-07-29T03:36:52.535Z,101811.72
2022-07-29T03:39:25.690Z,101811.72
2022-07-29T03:41:56.053Z,101803.88
2022-07-29T03:44:23.543Z,101800.41
2022-07-29T03:46:52.783Z,101807.31
2022-07-29T03:49:21.096Z,101798.75
2022-07-29T03:51:50.780Z,101793.50
2022-07-29T03:54:17.485Z,101794.34
2022-07-29T03:56:48.362Z,101795.28
2022-07-29T03:59:17.508Z,101794.44
2022-07-29T04:01:44.750Z,101800.41
2022-07-29T04:04:11.672Z,101803.13
2022-07-29T04:06:43.169Z,101802.31
2022-07-29T04:09:10.469Z,101798.75
2022-07-29T04:12:01.331Z,101795.38
2022-07-29T04:14:25.260Z,101789.31
2022-07-29T04:16:51.688Z,101789.31
2022-07-29T04:19:18.032Z,101789.31
2022-07-29T04:21:46.049Z,101791.09
2022-07-29T04:24:12.653Z,101795.50
2022-07-29T04:26:39.369Z,101796.25
2022-07-29T04:29:05.786Z,101785.00
2022-07-29T04:31:32.229Z,101786.69
2022-07-29T04:33:58.656Z,101793.72
2022-07-29T04:36:29.191Z,101787.63
2022-07-29T04:38:56.196Z,101789.44
2022-07-29T04:41:22.559Z,101799.91
2022-07-29T04:43:50.165Z,101800.72
2022-07-29T04:46:16.879Z,101797.28
2022-07-29T04:48:43.331Z,101791.22
2022-07-29T04:51:09.789Z,101802.53
2022-07-29T04:53:36.210Z,101796.47
2022-07-29T04:56:03.007Z,101796.47
2022-07-29T04:58:29.360Z,101789.53
2022-07-29T05:00:55.838Z,101794.78
2022-07-29T05:03:22.339Z,101792.16
2022-07-29T05:05:48.735Z,101796.56
2022-07-29T05:08:15.114Z,101799.19
2022-07-29T05:10:41.499Z,101800.13
2022-07-29T05:13:08.519Z,101797.50
2022-07-29T05:15:35.993Z,101798.31
2022-07-29T05:18:02.769Z,101795.72
2022-07-29T05:20:30.276Z,101796.56
2022-07-29T05:22:57.551Z,101796.66
2022-07-29T05:25:24.928Z,101807.97
2022-07-29T05:28:10.470Z,101803.56
2022-07-29T05:30:36.862Z,101813.22
2022-07-29T05:33:03.230Z,101819.28
2022-07-29T05:35:29.613Z,101812.34
2022-07-29T05:37:55.968Z,101819.28
2022-07-29T05:40:22.487Z,101825.38
2022-07-29T05:42:48.885Z,101817.50
2022-07-29T05:45:15.234Z,101814.03
2022-07-29T05:47:41.615Z,101827.13
2022-07-29T05:50:08.560Z,101818.44
2022-07-29T05:52:34.916Z,101820.22
2022-07-29T05:55:05.133Z,101829.75
2022-07-29T05:57:31.929Z,101822.75
2022-07-29T05:59:58.728Z,101828.06
2022-07-29T06:02:25.189Z,101833.22
2022-07-29T06:04:51.760Z,101828.94
2022-07-29T06:07:18.256Z,101831.53
2022-07-29T06:09:44.785Z,101828.94
2022-07-29T06:12:11.451Z,101820.53
2022-07-29T06:14:39.084Z,101820.97
2022-07-29T06:17:06.490Z,101827.25
2022-07-29T06:19:35.261Z,101835.22
2022-07-29T06:22:01.729Z,101840.66
2022-07-29T06:24:28.074Z,101845.09
2022-07-29T06:26:54.433Z,101850.53
2022-07-29T06:29:20.857Z,101861.22
2022-07-29T06:31:47.258Z,101866.84
2022-07-29T06:34:14.111Z,101864.56
2022-07-29T06:36:41.140Z,101857.63
2022-07-29T06:39:08.584Z,101858.50
2022-07-29T06:41:35.650Z,101868.03
2022-07-29T06:44:02.559Z,101850.63
2022-07-29T06:46:29.706Z,101851.78
2022-07-29T06:48:56.204Z,101850.31
2022-07-29T06:51:24.081Z,101852.94
2022-07-29T06:53:59.377Z,101862.25
2022-07-29T06:56:28.718Z,101872.50
2022-07-29T06:58:55.121Z,101868.75
2022-07-29T07:01:21.600Z,101862.25
2022-07-29T07:03:48.513Z,101854.09
2022-07-29T07:06:17.263Z,101858.16
2022-07-29T07:08:43.694Z,101864.97
2022-07-29T07:11:10.168Z,101863.91
2022-07-29T07:13:37.003Z,101862.03
2022-07-29T07:16:04.413Z,101860.13
2022-07-29T07:18:31.159Z,101862.66
2022-07-29T07:20:58.237Z,101865.91
2022-07-29T07:23:25.687Z,101866.63
2022-07-29T07:25:53.395Z,101864.66
2022-07-29T07:28:24.856Z,101870.72
2022-07-29T07:30:52.497Z,101860.13
2022-07-29T07:33:18.926Z,101866.09
2022-07-29T07:35:45.379Z,101863.47
2022-07-29T07:38:11.802Z,101857.19
2022-07-29T07:40:38.190Z,101847.53
2022-07-29T07:43:04.764Z,101850.06
2022-07-29T07:45:33.743Z,101845.66
2022-07-29T07:48:00.757Z,101841.25
2022-07-29T07:50:27.500Z,101841.25
2022-07-29T07:52:58.437Z,101843.88
2022-07-29T07:55:25.083Z,101844.63
2022-07-29T07:57:51.468Z,101843.75
2022-07-29T08:00:18.140Z,101843.66
2022-07-29T08:02:46.000Z,101840.09
2022-07-29T08:05:17.513Z,101833.16
2022-07-29T08:07:45.793Z,101827.81
2022-07-29T08:10:12.441Z,101840.00
2022-07-29T08:12:38.971Z,101827.75
2022-07-29T08:15:08.150Z,101838.13
2022-07-29T08:17:35.350Z,101841.59
2022-07-29T08:20:02.004Z,101836.47
2022-07-29T08:22:29.380Z,101837.28
2022-07-29T08:24:56.957Z,101827.56
2022-07-29T08:27:42.378Z,101839.78
2022-07-29T08:30:10.995Z,101837.06
2022-07-29T08:32:53.243Z,101830.06
2022-07-29T08:35:22.327Z,101834.34
2022-07-29T08:37:49.122Z,101843.97
2022-07-29T08:40:15.634Z,101832.69
2022-07-29T08:42:42.255Z,101838.75
2022-07-29T08:45:09.297Z,101848.19
2022-07-29T08:47:40.437Z,101853.41
2022-07-29T08:50:08.814Z,101850.78
2022-07-29T08:52:38.554Z,101851.72
2022-07-29T08:55:06.953Z,101849.81
2022-07-29T08:57:34.954Z,101850.69
2022-07-29T09:00:11.324Z,101843.66
2022-07-29T09:02:42.551Z,101842.81
2022-07-29T09:05:09.678Z,101854.97
2022-07-29T09:07:36.444Z,101848.78
2022-07-29T09:10:05.216Z,101847.94
2022-07-29T09:12:37.589Z,101846.16
2022-07-29T09:15:04.742Z,101840.81
2022-07-29T09:17:42.738Z,101844.28
2022-07-29T09:20:11.792Z,101841.66
2022-07-29T09:22:41.855Z,101843.31
2022-07-29T09:25:09.250Z,101843.31
2022-07-29T09:27:35.696Z,101837.38
2022-07-29T09:30:08.669Z,101839.97
2022-07-29T09:32:55.540Z,101848.56
2022-07-29T09:35:24.378Z,101846.91
2022-07-29T09:37:51.402Z,101853.78
2022-07-29T09:40:22.738Z,101846.91
2022-07-29T09:42:49.749Z,101843.31
2022-07-29T09:45:31.451Z,101843.31
2022-07-29T09:48:01.276Z,101838.94
2022-07-29T09:50:38.940Z,101827.59
2022-07-29T09:53:05.396Z,101827.59
2022-07-29T09:55:31.794Z,101831.06
2022-07-29T09:58:20.205Z,101831.06
2022-07-29T10:00:48.038Z,101833.69
2022-07-29T10:03:16.555Z,101836.19
2022-07-29T10:05:44.058Z,101839.75
2022-07-29T10:08:13.215Z,101835.34
2022-07-29T10:10:42.623Z,101833.69
2022-07-29T10:13:16.354Z,101837.97
2022-07-29T10:15:46.027Z,101828.22
2022-07-29T10:18:14.305Z,101841.22
2022-07-29T10:20:41.388Z,101835.03
2022-07-29T10:23:08.039Z,101848.13
2022-07-29T10:25:34.428Z,101847.16
2022-07-29T10:28:00.792Z,101846.22
2022-07-29T10:30:27.660Z,101848.75
2022-07-29T10:33:12.967Z,101852.06
2022-07-29T10:35:44.736Z,101844.09
2022-07-29T10:38:45.793Z,101844.09
2022-07-29T10:41:27.378Z,101838.03
2022-07-29T10:44:00.425Z,101842.44
2022-07-29T10:46:28.778Z,101839.72
2022-07-29T10:49:11.440Z,101843.16
2022-07-29T10:51:55.809Z,101837.00
2022-07-29T10:54:47.160Z,101841.41
2022-07-29T10:57:13.997Z,101832.69
2022-07-29T10:59:41.299Z,101840.53
2022-07-29T11:02:42.131Z,101837.00
2022-07-29T11:05:13.840Z,101843.06
2022-07-29T11:08:02.325Z,101837.00
2022-07-29T11:10:31.372Z,101843.91
2022-07-29T11:12:59.098Z,101833.44
2022-07-29T11:15:25.667Z,101843.91
2022-07-29T11:17:55.111Z,101843.06
2022-07-29T11:20:40.449Z,101835.94
2022-07-29T11:23:20.853Z,101829.84
2022-07-29T11:26:13.482Z,101835.94
2022-07-29T11:28:55.706Z,101831.53
2022-07-29T11:31:35.949Z,101834.13
2022-07-29T11:34:19.130Z,101835.94
2022-07-29T11:37:06.161Z,101835.06
2022-07-29T11:42:32.323Z,101829.00
2022-07-29T11:45:43.056Z,101829.94
2022-07-29T11:48:29.753Z,101835.19
2022-07-29T11:50:53.247Z,101829.84
2022-07-29T11:53:19.753Z,101826.41
2022-07-29T11:55:55.275Z,101825.56
2022-07-29T11:58:26.000Z,101831.63
2022-07-29T12:00:53.310Z,101833.44
2022-07-29T12:03:34.190Z,101830.81
2022-07-29T12:06:04.487Z,101835.94
2022-07-29T12:08:41.621Z,101829.00
2022-07-29T12:11:16.791Z,101831.75
2022-07-29T12:13:43.235Z,101824.72
2022-07-29T12:16:09.642Z,101827.31
2022-07-29T12:18:41.040Z,101827.31
2022-07-29T12:21:09.124Z,101825.56
2022-07-29T12:23:38.730Z,101834.25
2022-07-29T12:26:07.411Z,101829.84
2022-07-29T12:28:40.430Z,101837.59
2022-07-29T12:31:14.202Z,101835.94
2022-07-29T12:33:40.717Z,101833.31
2022-07-29T12:36:10.506Z,101833.19
2022-07-29T12:38:41.374Z,101841.06
2022-07-29T12:41:07.917Z,101830.59
2022-07-29T12:43:34.407Z,101835.81
2022-07-29T12:46:13.962Z,101835.47
2022-07-29T12:48:43.272Z,101833.47
2022-07-29T12:51:11.030Z,101829.91
2022-07-29T12:53:38.327Z,101831.69
2022-07-29T12:56:20.610Z,101833.47
2022-07-29T12:58:51.085Z,101825.47
2022-07-29T13:01:20.408Z,101820.25
2022-07-29T13:03:57.463Z,101824.53
2022-07-29T13:06:36.394Z,101829.66
2022-07-29T13:09:08.649Z,101820.03
2022-07-29T13:11:47.901Z,101826.09
2022-07-29T13:14:34.921Z,101824.44
2022-07-29T13:17:19.068Z,101820.97
2022-07-29T13:19:53.876Z,101824.31
2022-07-29T13:22:25.005Z,101818.84
2022-07-29T13:25:03.983Z,101827.56
2022-07-29T13:27:33.768Z,101821.34
2022-07-29T13:30:02.584Z,101814.34
2022-07-29T13:32:31.444Z,101817.78
2022-07-29T13:34:59.868Z,101815.06
2022-07-29T13:37:27.208Z,101807.19
2022-07-29T13:39:54.991Z,101813.28
2022-07-29T13:42:21.523Z,101818.53
2022-07-29T13:44:49.515Z,101816.75
2022-07-29T13:47:17.048Z,101814.00
2022-07-29T13:49:43.569Z,101807.06
2022-07-29T13:52:09.939Z,101813.16
2022-07-29T13:54:42.362Z,101814.81
2022-07-29T13:57:09.206Z,101806.13
2022-07-29T13:59:35.601Z,101817.31
2022-07-29T14:02:01.982Z,101812.94
2022-07-29T14:04:28.375Z,101808.28
2022-07-29T14:06:55.101Z,101804.72
2022-07-29T14:09:21.578Z,101798.31
2022-07-29T14:11:50.512Z,101802.69
2022-07-29T14:14:16.887Z,101794.84
2022-07-29T14:16:47.611Z,101810.56
2022-07-29T14:19:16.974Z,101804.28
2022-07-29T14:21:43.376Z,101804.16
2022-07-29T14:24:16.302Z,101808.47
2022-07-29T14:26:47.988Z,101803.09
2022-07-29T14:29:14.480Z,101801.41
2022-07-29T14:31:41.003Z,101800.34
2022-07-29T14:34:07.420Z,101811.78
2022-07-29T14:36:33.802Z,101813.38
2022-07-29T14:39:00.143Z,101803.81
2022-07-29T14:41:29.067Z,101806.44
2022-07-29T14:43:55.448Z,101805.72
2022-07-29T14:46:21.841Z,101807.50
2022-07-29T14:48:48.325Z,101807.63
2022-07-29T14:51:14.849Z,101820.75
2022-07-29T14:53:41.200Z,101806.66
2022-07-29T14:56:35.065Z,101806.78
2022-07-29T14:58:53.934Z,101803.31
2022-07-29T15:01:20.455Z,101811.06
2022-07-29T15:03:47.013Z,101810.13
2022-07-29T15:06:13.475Z,101801.28
2022-07-29T15:08:39.909Z,101804.91
2022-07-29T15:11:06.395Z,101811.78
2022-07-29T15:13:33.651Z,101811.78
2022-07-29T15:16:00.512Z,101811.91
2022-07-29T15:18:27.054Z,101818.00
2022-07-29T15:20:53.424Z,101810.97
2022-07-29T15:23:20.592Z,101820.50
2022-07-29T15:25:47.235Z,101816.22
2022-07-29T15:28:13.655Z,101816.09
2022-07-29T15:30:42.769Z,101811.66
2022-07-29T15:33:10.370Z,101815.06
2022-07-29T15:35:40.433Z,101807.19
2022-07-29T15:38:07.902Z,101806.34
2022-07-29T15:40:34.356Z,101812.44
2022-07-29T15:43:06.534Z,101810.75
2022-07-29T15:45:40.131Z,101815.06
2022-07-29T15:48:08.471Z,101818.50
2022-07-29T15:50:35.596Z,101812.22
2022-07-29T15:53:03.081Z,101803.41
2022-07-29T15:55:29.503Z,101801.72
2022-07-29T15:58:00.307Z,101806.13
2022-07-29T16:00:27.210Z,101808.03
2022-07-29T16:02:53.565Z,101807.19
2022-07-29T16:05:20.021Z,101811.47
2022-07-29T16:07:46.462Z,101802.06
2022-07-29T16:10:12.855Z,101806.34
2022-07-29T16:12:39.298Z,101809.03
2022-07-29T16:15:09.933Z,101808.13
2022-07-29T16:17:37.759Z,101803.81
2022-07-29T16:20:05.793Z,101808.13
2022-07-29T16:22:32.484Z,101802.78
2022-07-29T16:24:58.899Z,101800.28
2022-07-29T16:27:34.284Z,101808.97
2022-07-29T16:30:05.828Z,101805.41
2022-07-29T16:32:32.200Z,101803.59
2022-07-29T16:34:58.585Z,101812.31
2022-07-29T16:37:24.965Z,101803.59
2022-07-29T16:39:55.239Z,101804.47
2022-07-29T16:42:45.064Z,101802.78
2022-07-29T16:45:10.481Z,101805.28
2022-07-29T16:47:37.031Z,101799.22
2022-07-29T16:50:04.708Z,101805.28
2022-07-29T16:52:31.090Z,101797.28
2022-07-29T16:54:57.459Z,101803.41
2022-07-29T16:57:24.271Z,101798.88
2022-07-29T16:59:51.546Z,101810.78
2022-07-29T17:02:18.485Z,101807.94
2022-07-29T17:04:44.910Z,101807.00
2022-07-29T17:07:11.674Z,101806.03
2022-07-29T17:09:38.129Z,101805.78
2022-07-29T17:12:04.835Z,101813.56
2022-07-29T17:14:31.867Z,101808.22
2022-07-29T17:17:00.932Z,101809.84
2022-07-29T17:19:31.754Z,101806.28
2022-07-29T17:22:06.379Z,101810.47
2022-07-29T17:24:37.152Z,101809.75
2022-07-29T17:27:04.983Z,101812.25
2022-07-29T17:29:31.419Z,101805.94
2022-07-29T17:31:59.383Z,101812.97
2022-07-29T17:34:25.871Z,101813.09
2022-07-29T17:36:52.383Z,101815.59
2022-07-29T17:39:18.745Z,101815.72
2022-07-29T17:41:46.696Z,101815.84
2022-07-29T17:44:13.461Z,101822.72
2022-07-29T17:46:40.661Z,101830.72
2022-07-29T17:49:10.176Z,101825.59
2022-07-29T17:51:36.670Z,101827.28
2022-07-29T17:54:03.330Z,101827.28
2022-07-29T17:56:29.719Z,101833.13
2022-07-29T17:58:57.189Z,101830.50
2022-07-29T18:01:26.009Z,101831.47
2022-07-29T18:03:53.220Z,101827.97
2022-07-29T18:06:20.834Z,101835.84
2022-07-29T18:08:47.823Z,101828.97
2022-07-29T18:11:15.161Z,101823.81
2022-07-29T18:13:41.951Z,101833.47
2022-07-29T18:16:11.566Z,101831.81
2022-07-29T18:18:38.081Z,101824.06
2022-07-29T18:21:04.517Z,101829.19
2022-07-29T18:23:31.272Z,101828.22
2022-07-29T18:25:57.619Z,101829.06
2022-07-29T18:28:24.006Z,101830.84
2022-07-29T18:30:50.515Z,101835.25
2022-07-29T18:33:21.209Z,101839.81
2022-07-29T18:35:49.463Z,101840.63
2022-07-29T18:38:15.951Z,101841.44
2022-07-29T18:40:42.521Z,101848.38
2022-07-29T18:43:09.108Z,101841.44
2022-07-29T18:45:35.475Z,101844.94
2022-07-29T18:48:02.268Z,101851.81
2022-07-29T18:50:30.110Z,101842.31
2022-07-29T18:52:58.520Z,101850.06
2022-07-29T18:55:26.003Z,101837.78
2022-07-29T18:57:54.256Z,101843.97
2022-07-29T19:00:23.797Z,101854.44
2022-07-29T19:02:50.331Z,101857.06
2022-07-29T19:05:16.902Z,101861.38
2022-07-29T19:07:46.345Z,101865.81
2022-07-29T19:10:13.442Z,101861.50
2022-07-29T19:12:42.986Z,101872.81
2022-07-29T19:15:10.595Z,101873.78
2022-07-29T19:17:39.374Z,101872.09
2022-07-29T19:20:07.387Z,101872.94
2022-07-29T19:22:34.309Z,101885.22
2022-07-29T19:25:00.722Z,101878.19
2022-07-29T19:27:27.067Z,101888.66
2022-07-29T19:29:55.086Z,101891.19
2022-07-29T19:32:25.598Z,101892.03
2022-07-29T19:35:11.426Z,101891.19
2022-07-29T19:37:37.794Z,101892.84
2022-07-29T19:40:05.719Z,101897.28
2022-07-29T19:42:32.167Z,101901.66
2022-07-29T19:44:58.721Z,101906.09
2022-07-29T19:47:25.100Z,101916.59
2022-07-29T19:49:51.514Z,101913.97
2022-07-29T19:52:17.981Z,101913.25
2022-07-29T19:54:44.363Z,101918.50
2022-07-29T19:57:10.762Z,101918.38
2022-07-29T19:59:37.145Z,101921.84
2022-07-29T20:02:03.817Z,101930.53
2022-07-29T20:04:33.170Z,101922.66
2022-07-29T20:07:04.402Z,101935.78
2022-07-29T20:09:31.183Z,101926.97
2022-07-29T20:11:57.756Z,101931.38
2022-07-29T20:14:24.112Z,101930.53
2022-07-29T20:16:50.992Z,101931.50
2022-07-29T20:19:17.402Z,101940.31
2022-07-29T20:21:44.257Z,101937.69
2022-07-29T20:24:11.201Z,101934.25
2022-07-29T20:26:37.610Z,101934.25
2022-07-29T20:29:05.207Z,101938.63
2022-07-29T20:31:34.130Z,101936.94
2022-07-29T20:34:01.528Z,101947.44
2022-07-29T20:36:28.304Z,101944.94
2022-07-29T20:38:55.185Z,101946.84
2022-07-29T20:41:21.651Z,101946.00
2022-07-29T20:43:49.706Z,101944.34
2022-07-29T20:46:16.120Z,101944.44
2022-07-29T20:48:42.793Z,101938.38
2022-07-29T20:51:09.239Z,101937.63
2022-07-29T20:53:37.821Z,101943.81
2022-07-29T20:56:04.511Z,101943.81
2022-07-29T20:58:32.535Z,101943.94
2022-07-29T21:00:58.876Z,101937.84
2022-07-29T21:03:26.450Z,101949.28
2022-07-29T21:05:52.923Z,101953.72
2022-07-29T21:08:19.292Z,101958.13
2022-07-29T21:10:45.684Z,101957.28
2022-07-29T21:13:13.919Z,101959.19
2022-07-29T21:15:45.878Z,101962.63
2022-07-29T21:18:27.839Z,101970.50
2022-07-29T21:20:55.018Z,101969.78
2022-07-29T21:23:21.471Z,101974.91
2022-07-29T21:25:47.827Z,101968.94
2022-07-29T21:28:32.736Z,101966.31
2022-07-29T21:31:03.552Z,101970.72
2022-07-29T21:33:31.300Z,101969.91
2022-07-29T21:38:44.091Z,101955.06
2022-07-29T21:41:12.465Z,101966.50
2022-07-29T21:43:41.843Z,101964.72
2022-07-29T21:46:09.026Z,101961.38
2022-07-29T21:48:35.479Z,101956.13
2022-07-29T21:51:02.161Z,101954.47
2022-07-29T21:53:28.620Z,101955.28
2022-07-29T21:55:55.512Z,101957.09
2022-07-29T21:58:22.838Z,101956.34
2022-07-29T22:00:49.944Z,101951.09
2022-07-29T22:03:16.458Z,101943.97
2022-07-29T22:05:42.906Z,101940.63
2022-07-29T22:08:09.504Z,101941.56
2022-07-29T22:10:36.039Z,101948.59
2022-07-29T22:13:03.115Z,101956.47
2022-07-29T22:15:29.851Z,101948.72
2022-07-29T22:17:56.703Z,101946.09
2022-07-29T22:20:23.563Z,101938.22
2022-07-29T22:22:49.912Z,101936.53
2022-07-29T22:25:16.479Z,101941.66
2022-07-29T22:27:43.170Z,101937.41
2022-07-29T22:30:10.364Z,101951.44
2022-07-29T22:32:36.887Z,101947.03
2022-07-29T22:35:03.813Z,101950.63
2022-07-29T22:37:30.218Z,101945.38
2022-07-29T22:39:56.826Z,101949.75
2022-07-29T22:42:23.284Z,101955.97
2022-07-29T22:44:49.659Z,101947.25
2022-07-29T22:47:15.995Z,101949.88
2022-07-29T22:49:42.564Z,101943.81
2022-07-29T22:52:09.137Z,101938.66
2022-07-29T22:54:35.564Z,101940.31
2022-07-29T22:57:02.890Z,101943.91
2022-07-29T22:59:29.308Z,101952.59
2022-07-29T23:01:55.740Z,101957.03
2022-07-29T23:04:23.651Z,101957.13
2022-07-29T23:06:51.024Z,101955.34
2022-07-29T23:09:17.632Z,101949.28
2022-07-29T23:11:44.046Z,101953.66
2022-07-29T23:14:10.459Z,101957.03
2022-07-29T23:16:36.904Z,101948.41
2022-07-29T23:19:03.420Z,101951.88
2022-07-29T23:21:29.835Z,101957.13
2022-07-29T23:23:56.216Z,101951.03
2022-07-29T23:26:22.620Z,101952.00
2022-07-29T23:28:49.026Z,101952.00
2022-07-29T23:31:15.510Z,101945.91
2022-07-29T23:33:41.972Z,101958.19
2022-07-29T23:36:08.367Z,101951.16
2022-07-29T23:38:34.768Z,101949.50
2022-07-29T23:41:02.207Z,101957.34
2022-07-29T23:43:28.763Z,101956.50
2022-07-29T23:45:56.134Z,101959.13
2022-07-29T23:48:24.597Z,101960.81
2022-07-29T23:50:50.999Z,101964.47
2022-07-29T23:53:17.566Z,101957.47
2022-07-29T23:55:43.932Z,101955.78
2022-07-29T23:58:10.389Z,101953.16
